sensor_id;sensor_type;location;lat;lon;timestamp;pressure;altitude;pressure_sealevel;temperature;humidity
78407;BME280;67692;51.074;-1.790;2023-04-19T00:00:52;101972.44;;;8.16;68.80
78407;BME280;67692;51.074;-1.790;2023-04-19T00:03:19;101977.59;;;8.16;68.73
78407;BME280;67692;51.074;-1.790;2023-04-19T00:05:48;101969.28;;;8.07;69.31
78407;BME280;67692;51.074;-1.790;2023-04-19T00:08:18;101967.34;;;8.14;69.74
78407;BME280;67692;51.074;-1.790;2023-04-19T00:10:45;101968.63;;;8.26;68.27
78407;BME280;67692;51.074;-1.790;2023-04-19T00:13:13;101972.88;;;8.27;68.38
78407;BME280;67692;51.074;-1.790;2023-04-19T00:15:40;101968.50;;;8.29;68.00
78407;BME280;67692;51.074;-1.790;2023-04-19T00:18:06;101959.00;;;8.29;68.43
78407;BME280;67692;51.074;-1.790;2023-04-19T00:20:33;101961.28;;;8.37;67.79
78407;BME280;67692;51.074;-1.790;2023-04-19T00:23:00;101964.69;;;8.39;68.26
78407;BME280;67692;51.074;-1.790;2023-04-19T00:25:28;101958.56;;;8.42;68.51
78407;BME280;67692;51.074;-1.790;2023-04-19T00:27:56;101957.81;;;8.38;68.37
78407;BME280;67692;51.074;-1.790;2023-04-19T00:30:24;101945.72;;;8.40;68.69
78407;BME280;67692;51.074;-1.790;2023-04-19T00:32:50;101954.53;;;8.34;68.62
78407;BME280;67692;51.074;-1.790;2023-04-19T00:35:17;101952.03;;;8.31;68.92
78407;BME280;67692;51.074;-1.790;2023-04-19T00:37:43;101952.78;;;8.35;69.47
78407;BME280;67692;51.074;-1.790;2023-04-19T00:40:10;101943.81;;;8.22;69.92
78407;BME280;67692;51.074;-1.790;2023-04-19T00:42:37;101947.97;;;8.26;70.13
78407;BME280;67692;51.074;-1.790;2023-04-19T00:45:04;101938.59;;;8.23;70.16
78407;BME280;67692;51.074;-1.790;2023-04-19T00:47:33;101943.16;;;8.17;70.04
78407;BME280;67692;51.074;-1.790;2023-04-19T00:50:00;101941.69;;;8.10;69.90
78407;BME280;67692;51.074;-1.790;2023-04-19T00:52:27;101930.84;;;8.01;70.58
78407;BME280;67692;51.074;-1.790;2023-04-19T00:54:54;101934.50;;;7.96;70.41
78407;BME280;67692;51.074;-1.790;2023-04-19T00:57:24;101927.66;;;7.95;70.75
78407;BME280;67692;51.074;-1.790;2023-04-19T00:59:50;101935.28;;;7.98;70.57
78407;BME280;67692;51.074;-1.790;2023-04-19T01:02:17;101923.94;;;8.02;70.79
78407;BME280;67692;51.074;-1.790;2023-04-19T01:04:47;101919.03;;;7.96;71.02
78407;BME280;67692;51.074;-1.790;2023-04-19T01:07:14;101913.13;;;7.92;70.86
78407;BME280;67692;51.074;-1.790;2023-04-19T01:09:42;101913.81;;;7.97;70.85
78407;BME280;67692;51.074;-1.790;2023-04-19T01:12:09;101918.91;;;7.99;71.37
78407;BME280;67692;51.074;-1.790;2023-04-19T01:14:35;101911.56;;;7.88;71.65
78407;BME280;67692;51.074;-1.790;2023-04-19T01:17:02;101905.75;;;7.83;71.45
78407;BME280;67692;51.074;-1.790;2023-04-19T01:19:28;101905.56;;;7.88;71.84
78407;BME280;67692;51.074;-1.790;2023-04-19T01:21:57;101894.94;;;7.97;71.69
78407;BME280;67692;51.074;-1.790;2023-04-19T01:24:24;101893.84;;;8.02;71.92
78407;BME280;67692;51.074;-1.790;2023-04-19T01:26:51;101897.19;;;8.04;71.74
78407;BME280;67692;51.074;-1.790;2023-04-19T01:29:18;101889.56;;;8.01;72.63
78407;BME280;67692;51.074;-1.790;2023-04-19T01:31:46;101885.97;;;8.05;72.68
78407;BME280;67692;51.074;-1.790;2023-04-19T01:34:15;101885.91;;;8.07;72.64
78407;BME280;67692;51.074;-1.790;2023-04-19T01:36:42;101883.38;;;8.05;72.77
78407;BME280;67692;51.074;-1.790;2023-04-19T01:39:08;101887.53;;;8.10;72.79
78407;BME280;67692;51.074;-1.790;2023-04-19T01:41:37;101882.31;;;8.11;73.15
78407;BME280;67692;51.074;-1.790;2023-04-19T01:44:03;101888.31;;;8.12;73.05
78407;BME280;67692;51.074;-1.790;2023-04-19T01:46:30;101882.19;;;8.14;73.62
78407;BME280;67692;51.074;-1.790;2023-04-19T01:48:57;101879.50;;;8.17;73.60
78407;BME280;67692;51.074;-1.790;2023-04-19T01:51:23;101875.81;;;8.23;73.68
78407;BME280;67692;51.074;-1.790;2023-04-19T01:53:50;101877.41;;;8.27;74.29
78407;BME280;67692;51.074;-1.790;2023-04-19T01:56:18;101878.03;;;8.32;74.14
78407;BME280;67692;51.074;-1.790;2023-04-19T01:58:46;101877.25;;;8.30;74.96
78407;BME280;67692;51.074;-1.790;2023-04-19T02:01:12;101872.47;;;8.43;74.85
78407;BME280;67692;51.074;-1.790;2023-04-19T02:03:39;101872.22;;;8.49;75.01
78407;BME280;67692;51.074;-1.790;2023-04-19T02:06:09;101868.50;;;8.56;74.81
78407;BME280;67692;51.074;-1.790;2023-04-19T02:08:36;101874.88;;;8.47;75.74
78407;BME280;67692;51.074;-1.790;2023-04-19T02:11:05;101872.28;;;8.47;75.87
78407;BME280;67692;51.074;-1.790;2023-04-19T02:13:32;101860.69;;;8.57;75.96
78407;BME280;67692;51.074;-1.790;2023-04-19T02:16:00;101855.00;;;8.70;75.59
78407;BME280;67692;51.074;-1.790;2023-04-19T02:18:27;101849.69;;;8.52;76.70
78407;BME280;67692;51.074;-1.790;2023-04-19T02:20:53;101848.69;;;8.56;76.67
78407;BME280;67692;51.074;-1.790;2023-04-19T02:23:20;101846.72;;;8.61;76.56
78407;BME280;67692;51.074;-1.790;2023-04-19T02:25:47;101839.00;;;8.61;76.27
78407;BME280;67692;51.074;-1.790;2023-04-19T02:28:13;101836.53;;;8.58;76.72
78407;BME280;67692;51.074;-1.790;2023-04-19T02:30:40;101832.78;;;8.65;76.78
78407;BME280;67692;51.074;-1.790;2023-04-19T02:33:08;101824.28;;;8.63;76.90
78407;BME280;67692;51.074;-1.790;2023-04-19T02:35:34;101828.03;;;8.56;77.17
78407;BME280;67692;51.074;-1.790;2023-04-19T02:38:02;101831.25;;;8.61;77.04
78407;BME280;67692;51.074;-1.790;2023-04-19T02:40:29;101827.75;;;8.62;76.91
78407;BME280;67692;51.074;-1.790;2023-04-19T02:42:55;101830.19;;;8.65;77.20
78407;BME280;67692;51.074;-1.790;2023-04-19T02:45:22;101831.84;;;8.68;77.13
78407;BME280;67692;51.074;-1.790;2023-04-19T02:47:48;101820.59;;;8.69;76.89
78407;BME280;67692;51.074;-1.790;2023-04-19T02:50:16;101822.97;;;8.74;76.57
78407;BME280;67692;51.074;-1.790;2023-04-19T02:52:43;101828.78;;;8.79;77.02
78407;BME280;67692;51.074;-1.790;2023-04-19T02:55:10;101825.56;;;8.74;76.69
78407;BME280;67692;51.074;-1.790;2023-04-19T02:57:36;101816.34;;;8.68;76.94
78407;BME280;67692;51.074;-1.790;2023-04-19T03:00:04;101821.06;;;8.58;77.03
78407;BME280;67692;51.074;-1.790;2023-04-19T03:02:31;101821.06;;;8.58;76.97
78407;BME280;67692;51.074;-1.790;2023-04-19T03:04:57;101830.00;;;8.50;77.37
78407;BME280;67692;51.074;-1.790;2023-04-19T03:07:25;101825.56;;;8.53;76.85
78407;BME280;67692;51.074;-1.790;2023-04-19T03:09:52;101832.59;;;8.50;77.23
78407;BME280;67692;51.074;-1.790;2023-04-19T03:12:18;101827.09;;;8.37;77.45
78407;BME280;67692;51.074;-1.790;2023-04-19T03:14:45;101826.56;;;8.29;77.91
78407;BME280;67692;51.074;-1.790;2023-04-19T03:17:12;101823.06;;;8.30;78.01
78407;BME280;67692;51.074;-1.790;2023-04-19T03:19:38;101820.50;;;8.30;77.24
78407;BME280;67692;51.074;-1.790;2023-04-19T03:22:05;101813.72;;;8.27;77.60
78407;BME280;67692;51.074;-1.790;2023-04-19T03:24:33;101826.09;;;8.19;77.94
78407;BME280;67692;51.074;-1.790;2023-04-19T03:27:00;101818.13;;;8.25;77.66
78407;BME280;67692;51.074;-1.790;2023-04-19T03:29:26;101817.44;;;8.20;77.83
78407;BME280;67692;51.074;-1.790;2023-04-19T03:31:53;101816.66;;;8.18;78.12
78407;BME280;67692;51.074;-1.790;2023-04-19T03:34:19;101811.63;;;8.15;78.00
78407;BME280;67692;51.074;-1.790;2023-04-19T03:36:46;101816.03;;;8.13;78.48
78407;BME280;67692;51.074;-1.790;2023-04-19T03:39:12;101811.50;;;8.18;77.76
78407;BME280;67692;51.074;-1.790;2023-04-19T03:41:40;101817.28;;;8.25;77.87
78407;BME280;67692;51.074;-1.790;2023-04-19T03:44:07;101817.38;;;8.22;77.59
78407;BME280;67692;51.074;-1.790;2023-04-19T03:46:33;101806.97;;;8.25;77.64
78407;BME280;67692;51.074;-1.790;2023-04-19T03:49:00;101817.22;;;8.26;77.63
78407;BME280;67692;51.074;-1.790;2023-04-19T03:51:27;101809.56;;;8.23;77.98
78407;BME280;67692;51.074;-1.790;2023-04-19T03:53:53;101816.41;;;8.24;77.87
78407;BME280;67692;51.074;-1.790;2023-04-19T03:56:20;101814.38;;;8.32;77.54
78407;BME280;67692;51.074;-1.790;2023-04-19T03:58:49;101810.72;;;8.38;77.32
78407;BME280;67692;51.074;-1.790;2023-04-19T04:01:19;101806.16;;;8.45;76.69
78407;BME280;67692;51.074;-1.790;2023-04-19T04:03:45;101806.44;;;8.37;77.40
78407;BME280;67692;51.074;-1.790;2023-04-19T04:06:12;101816.78;;;8.37;77.28
78407;BME280;67692;51.074;-1.790;2023-04-19T04:08:39;101817.38;;;8.22;77.87
78407;BME280;67692;51.074;-1.790;2023-04-19T04:11:05;101809.56;;;8.23;77.88
78407;BME280;67692;51.074;-1.790;2023-04-19T04:13:32;101814.38;;;8.32;77.56
78407;BME280;67692;51.074;-1.790;2023-04-19T04:16:00;101799.38;;;8.42;77.18
78407;BME280;67692;51.074;-1.790;2023-04-19T04:18:27;101799.09;;;8.48;77.05
78407;BME280;67692;51.074;-1.790;2023-04-19T04:20:54;101794.56;;;8.53;76.53
78407;BME280;67692;51.074;-1.790;2023-04-19T04:23:20;101797.44;;;8.47;76.70
78407;BME280;67692;51.074;-1.790;2023-04-19T04:25:55;101799.81;;;8.52;76.43
78407;BME280;67692;51.074;-1.790;2023-04-19T04:28:23;101799.81;;;8.52;76.47
78407;BME280;67692;51.074;-1.790;2023-04-19T04:30:49;101799.75;;;8.53;76.49
78407;BME280;67692;51.074;-1.790;2023-04-19T04:33:18;101799.88;;;8.50;76.30
78407;BME280;67692;51.074;-1.790;2023-04-19T04:35:45;101800.91;;;8.46;76.40
78407;BME280;67692;51.074;-1.790;2023-04-19T04:38:11;101808.03;;;8.41;76.67
78407;BME280;67692;51.074;-1.790;2023-04-19T04:40:38;101798.41;;;8.45;76.69
78407;BME280;67692;51.074;-1.790;2023-04-19T04:43:05;101794.97;;;8.44;76.52
78407;BME280;67692;51.074;-1.790;2023-04-19T04:45:32;101805.19;;;8.47;76.43
78407;BME280;67692;51.074;-1.790;2023-04-19T04:47:59;101811.25;;;8.46;76.20
78407;BME280;67692;51.074;-1.790;2023-04-19T04:50:27;101817.38;;;8.44;76.59
78407;BME280;67692;51.074;-1.790;2023-04-19T04:52:54;101804.78;;;8.36;76.41
78407;BME280;67692;51.074;-1.790;2023-04-19T04:55:21;101802.94;;;8.18;77.41
78407;BME280;67692;51.074;-1.790;2023-04-19T04:57:47;101805.38;;;8.21;77.17
78407;BME280;67692;51.074;-1.790;2023-04-19T05:00:15;101810.94;;;8.12;77.78
78407;BME280;67692;51.074;-1.790;2023-04-19T05:02:42;101808.28;;;8.13;77.75
78407;BME280;67692;51.074;-1.790;2023-04-19T05:05:08;101803.13;;;8.13;78.07
78407;BME280;67692;51.074;-1.790;2023-04-19T05:07:37;101809.00;;;8.17;78.02
78407;BME280;67692;51.074;-1.790;2023-04-19T05:10:05;101805.66;;;8.15;78.05
78407;BME280;67692;51.074;-1.790;2023-04-19T05:12:32;101803.00;;;8.16;78.17
78407;BME280;67692;51.074;-1.790;2023-04-19T05:14:59;101806.06;;;8.26;78.07
78407;BME280;67692;51.074;-1.790;2023-04-19T05:17:26;101814.50;;;8.29;77.80
78407;BME280;67692;51.074;-1.790;2023-04-19T05:19:52;101816.84;;;8.35;77.98
78407;BME280;67692;51.074;-1.790;2023-04-19T05:22:19;101810.53;;;8.43;77.24
78407;BME280;67692;51.074;-1.790;2023-04-19T05:24:47;101807.19;;;8.41;77.27
78407;BME280;67692;51.074;-1.790;2023-04-19T05:27:14;101806.28;;;8.42;77.92
78407;BME280;67692;51.074;-1.790;2023-04-19T05:29:41;101805.38;;;8.43;77.51
78407;BME280;67692;51.074;-1.790;2023-04-19T05:32:07;101812.97;;;8.46;77.52
78407;BME280;67692;51.074;-1.790;2023-04-19T05:34:35;101806.00;;;8.48;77.72
78407;BME280;67692;51.074;-1.790;2023-04-19T05:37:01;101810.19;;;8.50;77.66
78407;BME280;67692;51.074;-1.790;2023-04-19T05:39:28;101804.28;;;8.48;78.02
78407;BME280;67692;51.074;-1.790;2023-04-19T05:41:56;101798.78;;;8.56;78.24
78407;BME280;67692;51.074;-1.790;2023-04-19T05:44:23;101814.84;;;8.62;77.90
78407;BME280;67692;51.074;-1.790;2023-04-19T05:46:49;101803.38;;;8.70;77.57
78407;BME280;67692;51.074;-1.790;2023-04-19T05:49:16;101800.53;;;8.55;77.99
78407;BME280;67692;51.074;-1.790;2023-04-19T05:51:43;101797.63;;;8.63;77.90
78407;BME280;67692;51.074;-1.790;2023-04-19T05:54:09;101801.81;;;8.65;77.58
78407;BME280;67692;51.074;-1.790;2023-04-19T05:56:38;101808.53;;;8.70;77.40
78407;BME280;67692;51.074;-1.790;2023-04-19T05:59:07;101806.84;;;8.69;77.75
78407;BME280;67692;51.074;-1.790;2023-04-19T06:01:35;101811.81;;;8.73;77.75
78407;BME280;67692;51.074;-1.790;2023-04-19T06:04:02;101814.97;;;8.80;77.61
78407;BME280;67692;51.074;-1.790;2023-04-19T06:06:29;101817.53;;;8.80;77.40
78407;BME280;67692;51.074;-1.790;2023-04-19T06:08:56;101817.03;;;8.72;77.38
78407;BME280;67692;51.074;-1.790;2023-04-19T06:11:22;101802.63;;;8.66;77.81
78407;BME280;67692;51.074;-1.790;2023-04-19T06:13:49;101811.44;;;8.62;78.08
78407;BME280;67692;51.074;-1.790;2023-04-19T06:16:17;101811.88;;;8.72;77.88
78407;BME280;67692;51.074;-1.790;2023-04-19T06:18:44;101804.84;;;8.75;77.91
78407;BME280;67692;51.074;-1.790;2023-04-19T06:21:11;101799.59;;;8.77;77.50
78407;BME280;67692;51.074;-1.790;2023-04-19T06:23:38;101802.41;;;8.72;77.49
78407;BME280;67692;51.074;-1.790;2023-04-19T06:26:04;101797.47;;;8.66;77.84
78407;BME280;67692;51.074;-1.790;2023-04-19T06:28:31;101810.84;;;8.76;77.55
78407;BME280;67692;51.074;-1.790;2023-04-19T06:30:58;101811.03;;;8.71;77.59
78407;BME280;67692;51.074;-1.790;2023-04-19T06:33:26;101808.63;;;8.67;78.17
78407;BME280;67692;51.074;-1.790;2023-04-19T06:35:52;101805.66;;;8.76;78.12
78407;BME280;67692;51.074;-1.790;2023-04-19T06:38:19;101806.66;;;8.73;77.67
78407;BME280;67692;51.074;-1.790;2023-04-19T06:40:46;101818.13;;;8.66;77.98
78407;BME280;67692;51.074;-1.790;2023-04-19T06:43:13;101821.25;;;8.74;77.81
78407;BME280;67692;51.074;-1.790;2023-04-19T06:45:40;101819.41;;;8.76;77.63
78407;BME280;67692;51.074;-1.790;2023-04-19T06:48:06;101814.25;;;8.76;77.86
78407;BME280;67692;51.074;-1.790;2023-04-19T06:50:34;101818.44;;;8.79;77.60
78407;BME280;67692;51.074;-1.790;2023-04-19T06:53:01;101818.38;;;8.80;77.90
78407;BME280;67692;51.074;-1.790;2023-04-19T06:55:27;101817.28;;;8.86;77.33
78407;BME280;67692;51.074;-1.790;2023-04-19T06:57:54;101820.06;;;8.81;77.44
78407;BME280;67692;51.074;-1.790;2023-04-19T07:00:21;101817.28;;;8.86;77.75
78407;BME280;67692;51.074;-1.790;2023-04-19T07:02:48;101823.53;;;8.80;77.94
78407;BME280;67692;51.074;-1.790;2023-04-19T07:05:14;101820.13;;;8.80;78.07
78407;BME280;67692;51.074;-1.790;2023-04-19T07:07:42;101827.56;;;8.87;78.04
78407;BME280;67692;51.074;-1.790;2023-04-19T07:10:09;101826.72;;;8.87;77.98
78407;BME280;67692;51.074;-1.790;2023-04-19T07:12:37;101820.72;;;8.86;77.96
78407;BME280;67692;51.074;-1.790;2023-04-19T07:15:04;101825.03;;;8.86;77.95
78407;BME280;67692;51.074;-1.790;2023-04-19T07:17:33;101826.72;;;8.87;78.24
78407;BME280;67692;51.074;-1.790;2023-04-19T07:20:00;101828.03;;;8.95;78.11
78407;BME280;67692;51.074;-1.790;2023-04-19T07:22:26;101830.50;;;8.99;77.94
78407;BME280;67692;51.074;-1.790;2023-04-19T07:24:54;101840.31;;;8.90;78.11
78407;BME280;67692;51.074;-1.790;2023-04-19T07:27:21;101848.91;;;8.91;78.42
78407;BME280;67692;51.074;-1.790;2023-04-19T07:29:47;101840.91;;;8.97;78.04
78407;BME280;67692;51.074;-1.790;2023-04-19T07:32:14;101834.19;;;8.93;78.04
78407;BME280;67692;51.074;-1.790;2023-04-19T07:34:40;101833.72;;;9.04;78.25
78407;BME280;67692;51.074;-1.790;2023-04-19T07:37:08;101841.69;;;9.18;77.61
78407;BME280;67692;51.074;-1.790;2023-04-19T07:39:34;101847.72;;;9.18;77.66
78407;BME280;67692;51.074;-1.790;2023-04-19T07:42:02;101844.56;;;9.31;77.00
78407;BME280;67692;51.074;-1.790;2023-04-19T07:44:29;101840.31;;;9.30;77.48
78407;BME280;67692;51.074;-1.790;2023-04-19T07:46:55;101849.38;;;9.38;76.99
78407;BME280;67692;51.074;-1.790;2023-04-19T07:49:22;101839.78;;;9.42;77.00
78407;BME280;67692;51.074;-1.790;2023-04-19T07:51:49;101842.97;;;9.47;77.11
78407;BME280;67692;51.074;-1.790;2023-04-19T07:54:15;101839.63;;;9.45;76.53
78407;BME280;67692;51.074;-1.790;2023-04-19T07:56:44;101844.34;;;9.54;76.57
78407;BME280;67692;51.074;-1.790;2023-04-19T07:59:12;101839.81;;;9.59;75.97
78407;BME280;67692;51.074;-1.790;2023-04-19T08:01:40;101840.75;;;9.58;76.27
78407;BME280;67692;51.074;-1.790;2023-04-19T08:04:07;101842.25;;;9.62;75.91
78407;BME280;67692;51.074;-1.790;2023-04-19T08:06:34;101835.28;;;9.64;76.23
78407;BME280;67692;51.074;-1.790;2023-04-19T08:09:03;101837.69;;;9.67;76.11
78407;BME280;67692;51.074;-1.790;2023-04-19T08:11:31;101831.50;;;9.71;76.06
78407;BME280;67692;51.074;-1.790;2023-04-19T08:13:57;101844.91;;;9.79;75.33
78407;BME280;67692;51.074;-1.790;2023-04-19T08:16:25;101835.97;;;9.68;75.66
78407;BME280;67692;51.074;-1.790;2023-04-19T08:18:52;101829.75;;;9.72;75.88
78407;BME280;67692;51.074;-1.790;2023-04-19T08:21:18;101829.22;;;9.82;75.40
78407;BME280;67692;51.074;-1.790;2023-04-19T08:23:45;101830.78;;;9.87;75.04
78407;BME280;67692;51.074;-1.790;2023-04-19T08:26:12;101828.47;;;9.80;75.12
78407;BME280;67692;51.074;-1.790;2023-04-19T08:28:38;101835.66;;;9.93;74.50
78407;BME280;67692;51.074;-1.790;2023-04-19T08:31:06;101822.78;;;9.91;74.71
78407;BME280;67692;51.074;-1.790;2023-04-19T08:33:34;101836.88;;;10.03;74.64
78407;BME280;67692;51.074;-1.790;2023-04-19T08:36:00;101832.31;;;10.08;74.46
78407;BME280;67692;51.074;-1.790;2023-04-19T08:38:27;101836.31;;;10.15;74.91
78407;BME280;67692;51.074;-1.790;2023-04-19T08:40:54;101837.53;;;10.25;74.11
78407;BME280;67692;51.074;-1.790;2023-04-19T08:43:20;101830.41;;;10.30;73.59
78407;BME280;67692;51.074;-1.790;2023-04-19T08:45:50;101835.59;;;10.30;73.93
78407;BME280;67692;51.074;-1.790;2023-04-19T08:48:17;101840.53;;;10.35;74.13
78407;BME280;67692;51.074;-1.790;2023-04-19T08:50:45;101846.25;;;10.41;73.29
78407;BME280;67692;51.074;-1.790;2023-04-19T08:53:13;101838.47;;;10.41;73.20
78407;BME280;67692;51.074;-1.790;2023-04-19T08:55:41;101844.78;;;10.36;73.34
78407;BME280;67692;51.074;-1.790;2023-04-19T08:58:08;101846.38;;;10.38;73.19
78407;BME280;67692;51.074;-1.790;2023-04-19T09:00:37;101844.94;;;10.50;73.30
78407;BME280;67692;51.074;-1.790;2023-04-19T09:03:05;101846.81;;;10.81;73.26
78407;BME280;67692;51.074;-1.790;2023-04-19T09:05:33;101854.28;;;10.87;72.17
78407;BME280;67692;51.074;-1.790;2023-04-19T09:08:20;101856.72;;;10.90;71.41
78407;BME280;67692;51.074;-1.790;2023-04-19T09:10:52;101847.47;;;11.02;71.46
78407;BME280;67692;51.074;-1.790;2023-04-19T09:13:19;101851.31;;;11.11;71.35
78407;BME280;67692;51.074;-1.790;2023-04-19T09:15:45;101853.59;;;11.17;71.28
78407;BME280;67692;51.074;-1.790;2023-04-19T09:18:12;101855.19;;;11.19;70.60
78407;BME280;67692;51.074;-1.790;2023-04-19T09:20:41;101844.06;;;11.17;70.98
78407;BME280;67692;51.074;-1.790;2023-04-19T09:23:12;101843.91;;;11.36;70.69
78407;BME280;67692;51.074;-1.790;2023-04-19T09:25:39;101845.69;;;11.51;70.45
78407;BME280;67692;51.074;-1.790;2023-04-19T09:28:09;101847.09;;;11.57;70.31
78407;BME280;67692;51.074;-1.790;2023-04-19T09:30:36;101839.25;;;11.74;69.51
78407;BME280;67692;51.074;-1.790;2023-04-19T09:33:03;101838.09;;;11.80;70.10
78407;BME280;67692;51.074;-1.790;2023-04-19T09:35:40;101842.25;;;11.98;69.14
78407;BME280;67692;51.074;-1.790;2023-04-19T09:38:08;101842.41;;;12.11;68.51
78407;BME280;67692;51.074;-1.790;2023-04-19T09:40:37;101839.25;;;12.06;68.13
78407;BME280;67692;51.074;-1.790;2023-04-19T09:43:04;101838.31;;;12.07;68.49
78407;BME280;67692;51.074;-1.790;2023-04-19T09:45:39;101838.41;;;12.05;68.53
78407;BME280;67692;51.074;-1.790;2023-04-19T09:48:07;101839.72;;;12.12;68.47
78407;BME280;67692;51.074;-1.790;2023-04-19T09:50:33;101830.16;;;12.13;68.35
78407;BME280;67692;51.074;-1.790;2023-04-19T09:53:01;101823.97;;;12.15;67.81
78407;BME280;67692;51.074;-1.790;2023-04-19T09:55:28;101832.34;;;12.20;68.79
78407;BME280;67692;51.074;-1.790;2023-04-19T09:57:57;101822.00;;;12.05;67.41
78407;BME280;67692;51.074;-1.790;2023-04-19T10:00:23;101823.00;;;12.02;67.42
78407;BME280;67692;51.074;-1.790;2023-04-19T10:02:51;101822.91;;;12.04;67.87
78407;BME280;67692;51.074;-1.790;2023-04-19T10:05:22;101811.19;;;12.27;67.25
78407;BME280;67692;51.074;-1.790;2023-04-19T10:07:49;101820.69;;;12.42;66.89
78407;BME280;67692;51.074;-1.790;2023-04-19T10:10:17;101807.53;;;12.45;66.33
78407;BME280;67692;51.074;-1.790;2023-04-19T10:12:46;101807.69;;;12.42;65.95
78407;BME280;67692;51.074;-1.790;2023-04-19T10:15:15;101799.91;;;12.42;66.09
78407;BME280;67692;51.074;-1.790;2023-04-19T10:17:42;101797.50;;;12.53;66.68
78407;BME280;67692;51.074;-1.790;2023-04-19T10:20:12;101790.94;;;12.62;65.46
78407;BME280;67692;51.074;-1.790;2023-04-19T10:22:42;101781.56;;;12.59;64.63
78407;BME280;67692;51.074;-1.790;2023-04-19T10:25:10;101771.84;;;12.63;65.59
78407;BME280;67692;51.074;-1.790;2023-04-19T10:27:37;101784.53;;;12.67;65.69
78407;BME280;67692;51.074;-1.790;2023-04-19T10:30:05;101779.16;;;12.70;65.44
78407;BME280;67692;51.074;-1.790;2023-04-19T10:32:39;101786.00;;;12.71;65.48
78407;BME280;67692;51.074;-1.790;2023-04-19T10:35:07;101785.03;;;12.74;64.78
78407;BME280;67692;51.074;-1.790;2023-04-19T10:37:34;101782.13;;;12.78;65.67
78407;BME280;67692;51.074;-1.790;2023-04-19T10:40:05;101782.66;;;12.98;63.65
78407;BME280;67692;51.074;-1.790;2023-04-19T10:45:37;101782.41;;;13.02;63.51
78407;BME280;67692;51.074;-1.790;2023-04-19T10:48:05;101786.84;;;13.00;63.50
78407;BME280;67692;51.074;-1.790;2023-04-19T10:50:58;101783.03;;;13.06;62.11
78407;BME280;67692;51.074;-1.790;2023-04-19T10:53:45;101780.44;;;13.06;61.99
78407;BME280;67692;51.074;-1.790;2023-04-19T10:56:12;101787.31;;;13.07;62.58
78407;BME280;67692;51.074;-1.790;2023-04-19T10:59:15;101778.78;;;13.05;61.88
78407;BME280;67692;51.074;-1.790;2023-04-19T11:01:50;101777.94;;;13.04;62.06
78407;BME280;67692;51.074;-1.790;2023-04-19T11:04:20;101773.94;;;12.99;61.64
78407;BME280;67692;51.074;-1.790;2023-04-19T11:06:58;101775.06;;;12.95;62.25
78407;BME280;67692;51.074;-1.790;2023-04-19T11:09:28;101767.25;;;13.09;61.88
78407;BME280;67692;51.074;-1.790;2023-04-19T11:11:57;101781.53;;;13.16;61.86
78407;BME280;67692;51.074;-1.790;2023-04-19T11:14:24;101784.53;;;13.24;61.00
78407;BME280;67692;51.074;-1.790;2023-04-19T11:16:51;101770.28;;;13.30;60.74
78407;BME280;67692;51.074;-1.790;2023-04-19T11:19:19;101779.03;;;13.29;61.16
78407;BME280;67692;51.074;-1.790;2023-04-19T11:21:46;101772.06;;;13.29;60.64
78407;BME280;67692;51.074;-1.790;2023-04-19T11:24:14;101764.81;;;13.34;61.25
78407;BME280;67692;51.074;-1.790;2023-04-19T11:26:43;101765.09;;;13.57;59.36
78407;BME280;67692;51.074;-1.790;2023-04-19T11:29:10;101761.41;;;13.61;60.54
78407;BME280;67692;51.074;-1.790;2023-04-19T11:31:37;101764.53;;;13.66;59.88
78407;BME280;67692;51.074;-1.790;2023-04-19T11:34:04;101760.19;;;13.79;60.32
78407;BME280;67692;51.074;-1.790;2023-04-19T11:36:32;101762.72;;;13.93;59.77
78407;BME280;67692;51.074;-1.790;2023-04-19T11:39:01;101755.91;;;14.18;58.08
78407;BME280;67692;51.074;-1.790;2023-04-19T11:41:28;101746.00;;;14.23;57.20
78407;BME280;67692;51.074;-1.790;2023-04-19T11:43:54;101746.13;;;14.34;56.97
78407;BME280;67692;51.074;-1.790;2023-04-19T11:46:21;101756.81;;;14.29;55.12
78407;BME280;67692;51.074;-1.790;2023-04-19T11:48:52;101754.00;;;14.07;55.67
78407;BME280;67692;51.074;-1.790;2023-04-19T11:51:19;101758.38;;;14.07;55.99
78407;BME280;67692;51.074;-1.790;2023-04-19T11:53:47;101753.56;;;14.00;56.02
78407;BME280;67692;51.074;-1.790;2023-04-19T11:56:14;101750.44;;;13.95;56.73
78407;BME280;67692;51.074;-1.790;2023-04-19T11:58:42;101762.63;;;13.95;56.11
78407;BME280;67692;51.074;-1.790;2023-04-19T12:01:10;101752.50;;;14.03;56.59
78407;BME280;67692;51.074;-1.790;2023-04-19T12:03:40;101745.78;;;14.13;56.29
78407;BME280;67692;51.074;-1.790;2023-04-19T12:06:10;101742.56;;;14.22;56.19
78407;BME280;67692;51.074;-1.790;2023-04-19T12:08:41;101751.72;;;14.41;56.15
78407;BME280;67692;51.074;-1.790;2023-04-19T12:11:09;101747.06;;;14.46;56.52
78407;BME280;67692;51.074;-1.790;2023-04-19T12:13:36;101746.41;;;14.42;56.48
78407;BME280;67692;51.074;-1.790;2023-04-19T12:16:05;101759.25;;;14.45;56.11
78407;BME280;67692;51.074;-1.790;2023-04-19T12:18:42;101746.13;;;14.34;56.15
78407;BME280;67692;51.074;-1.790;2023-04-19T12:21:10;101745.38;;;14.19;55.98
78407;BME280;67692;51.074;-1.790;2023-04-19T12:23:36;101761.94;;;14.31;56.25
78407;BME280;67692;51.074;-1.790;2023-04-19T12:26:04;101743.38;;;14.23;56.48
78407;BME280;67692;51.074;-1.790;2023-04-19T12:28:32;101749.44;;;14.23;57.00
78407;BME280;67692;51.074;-1.790;2023-04-19T12:30:58;101742.25;;;14.40;57.19
78407;BME280;67692;51.074;-1.790;2023-04-19T12:33:25;101752.44;;;14.30;55.96
78407;BME280;67692;51.074;-1.790;2023-04-19T12:35:51;101756.09;;;14.27;55.57
78407;BME280;67692;51.074;-1.790;2023-04-19T12:38:18;101752.75;;;14.25;54.98
78407;BME280;67692;51.074;-1.790;2023-04-19T12:40:45;101747.78;;;14.35;55.44
78407;BME280;67692;51.074;-1.790;2023-04-19T12:43:11;101753.81;;;14.36;55.46
78407;BME280;67692;51.074;-1.790;2023-04-19T12:45:39;101755.06;;;14.30;55.69
78407;BME280;67692;51.074;-1.790;2023-04-19T12:48:06;101759.53;;;14.41;55.62
78407;BME280;67692;51.074;-1.790;2023-04-19T12:50:33;101748.28;;;14.27;55.67
78407;BME280;67692;51.074;-1.790;2023-04-19T12:52:59;101747.56;;;14.38;55.72